Ogdensburg, New Jersey
Current Conditions -  °F | °C
As of 9:16 PM on Tuesday 21 Oct 2014 (Local Time) from KFWN Reporting Station
Broken Clouds Broken Clouds  
Wind Chill: 54°   Ceiling: 1900
Heat Index: 54°   Visibility: 10mi
Dew Point: 49°   Wind: 6mph
Humidity: 83%   Direction: 40°NE
Pressure: 29.92"   Gusts: NA
Location:  41.08°N, 74.59°W
Report Text: KFWN 220116Z AUTO 04005KT 10SM BKN019 12/09 A2992 RMK AO2 T01220094
Loading
Personal Weather Stations






























Interactive Weather Map
Tropical Storm Tracking
New forecast layout! Learn more

10-Day Weather Forecast

Advertisements
Track Severe Weather on mobile